createdAt,value
2023-03-15T00:00:12.261Z,100215.78
2023-03-15T00:02:39.285Z,100214.13
2023-03-15T00:05:06.281Z,100233.25
2023-03-15T00:07:32.801Z,100239.38
2023-03-15T00:09:59.429Z,100243.44
2023-03-15T00:12:25.959Z,100248.94
2023-03-15T00:14:52.618Z,100247.94
2023-03-15T00:17:21.428Z,100257.31
2023-03-15T00:19:48.436Z,100254.91
2023-03-15T00:22:15.039Z,100262.00
2023-03-15T00:24:41.620Z,100268.13
2023-03-15T00:27:08.362Z,100264.59
2023-03-15T00:29:34.992Z,100268.47
2023-03-15T00:32:01.554Z,100266.34
2023-03-15T00:34:28.216Z,100266.84
2023-03-15T00:36:54.718Z,100263.41
2023-03-15T00:39:21.288Z,100273.63
2023-03-15T00:41:47.854Z,100274.44
2023-03-15T00:44:14.511Z,100277.69
2023-03-15T00:46:41.018Z,100278.97
2023-03-15T00:49:07.547Z,100294.03
2023-03-15T00:51:34.337Z,100301.75
2023-03-15T00:54:00.904Z,100296.59
2023-03-15T00:56:30.093Z,100297.06
2023-03-15T00:58:58.505Z,100300.97
2023-03-15T01:01:27.203Z,100301.59
2023-03-15T01:03:53.972Z,100303.84
2023-03-15T01:06:22.236Z,100317.09
2023-03-15T01:08:49.529Z,100313.22
2023-03-15T01:11:18.658Z,100307.09
2023-03-15T01:13:45.255Z,100320.19
2023-03-15T01:16:13.045Z,100319.88
2023-03-15T01:18:39.774Z,100307.59
2023-03-15T01:21:07.149Z,100309.34
2023-03-15T01:23:33.776Z,100316.78
2023-03-15T01:26:01.512Z,100293.78
2023-03-15T01:28:28.227Z,100314.06
2023-03-15T01:30:56.483Z,100314.69
2023-03-15T01:33:23.124Z,100322.44
2023-03-15T01:35:58.684Z,100323.56
2023-03-15T01:38:25.397Z,100321.78
2023-03-15T01:40:51.914Z,100323.75
2023-03-15T01:43:19.814Z,100319.34
2023-03-15T01:46:01.581Z,100322.78
2023-03-15T01:48:39.085Z,100307.88
2023-03-15T01:51:10.715Z,100316.31
2023-03-15T01:53:37.306Z,100310.34
2023-03-15T01:56:04.330Z,100313.38
2023-03-15T01:58:36.812Z,100312.22
2023-03-15T02:01:03.845Z,100311.88
2023-03-15T02:03:35.862Z,100327.13
2023-03-15T02:06:06.789Z,100318.53
2023-03-15T02:08:59.859Z,100323.75
2023-03-15T02:11:31.746Z,100327.59
2023-03-15T02:13:58.724Z,100329.53
2023-03-15T02:16:26.358Z,100345.03
2023-03-15T02:18:58.194Z,100346.28
2023-03-15T02:21:47.649Z,100354.59
2023-03-15T02:24:29.744Z,100371.25
2023-03-15T02:26:56.921Z,100363.13
2023-03-15T02:29:25.673Z,100368.19
2023-03-15T02:31:52.837Z,100376.94
2023-03-15T02:34:19.401Z,100360.53
2023-03-15T02:36:47.871Z,100380.78
2023-03-15T02:39:20.781Z,100375.75
2023-03-15T02:41:48.794Z,100385.03
2023-03-15T02:44:21.439Z,100394.06
2023-03-15T02:46:48.505Z,100391.94
2023-03-15T02:49:21.687Z,100395.81
2023-03-15T02:51:48.242Z,100400.00
2023-03-15T02:54:14.877Z,100412.44
2023-03-15T02:56:41.438Z,100406.56
2023-03-15T02:59:08.128Z,100416.50
2023-03-15T03:01:37.223Z,100403.50
2023-03-15T03:04:03.991Z,100426.34
2023-03-15T03:06:30.840Z,100418.44
2023-03-15T03:08:58.293Z,100426.34
2023-03-15T03:11:25.073Z,100428.28
2023-03-15T03:13:54.762Z,100426.69
2023-03-15T03:16:23.185Z,100428.28
2023-03-15T03:18:49.810Z,100435.41
2023-03-15T03:21:16.418Z,100431.38
2023-03-15T03:23:46.102Z,100435.56
2023-03-15T03:26:16.544Z,100442.66
2023-03-15T03:28:45.619Z,100441.03
2023-03-15T03:31:19.429Z,100430.31
2023-03-15T03:33:46.228Z,100458.66
2023-03-15T03:36:13.121Z,100454.91
2023-03-15T03:38:44.165Z,100461.72
2023-03-15T03:41:11.033Z,100465.09
2023-03-15T03:43:38.177Z,100463.31
2023-03-15T03:46:05.296Z,100469.66
2023-03-15T03:48:34.778Z,100464.16
2023-03-15T03:51:01.407Z,100470.13
2023-03-15T03:53:27.965Z,100471.09
2023-03-15T03:55:58.000Z,100469.44
2023-03-15T03:58:25.819Z,100456.66
2023-03-15T04:01:00.325Z,100482.09
2023-03-15T04:03:31.065Z,100480.75
2023-03-15T04:06:05.533Z,100483.84
2023-03-15T04:08:35.341Z,100485.25
2023-03-15T04:11:05.165Z,100467.69
2023-03-15T04:13:34.874Z,100483.25
2023-03-15T04:16:03.710Z,100494.59
2023-03-15T04:18:37.771Z,100491.88
2023-03-15T04:21:04.779Z,100493.50
2023-03-15T04:23:31.370Z,100489.63
2023-03-15T04:26:15.082Z,100485.75
2023-03-15T04:28:56.360Z,100489.00
2023-03-15T04:31:37.811Z,100489.63
2023-03-15T04:34:30.863Z,100487.69
2023-03-15T04:37:11.334Z,100465.06
2023-03-15T04:39:58.206Z,100488.00
2023-03-15T04:42:40.042Z,100487.03
2023-03-15T04:45:23.753Z,100495.56
2023-03-15T04:48:10.948Z,100493.13
2023-03-15T04:51:00.629Z,100500.94
2023-03-15T04:53:52.736Z,100504.00
2023-03-15T04:56:25.288Z,100499.50
2023-03-15T04:59:23.992Z,100509.38
2023-03-15T05:02:07.360Z,100510.38
2023-03-15T05:04:56.768Z,100502.22
2023-03-15T05:07:44.375Z,100509.75
2023-03-15T05:10:23.168Z,100511.59
2023-03-15T05:13:08.201Z,100511.59
2023-03-15T05:16:04.689Z,100492.09
2023-03-15T05:18:50.437Z,100509.66
2023-03-15T05:21:43.295Z,100515.50
2023-03-15T05:24:42.215Z,100509.38
2023-03-15T05:27:16.319Z,100520.03
2023-03-15T05:30:09.796Z,100527.84
2023-03-15T05:32:59.587Z,100525.38
2023-03-15T05:35:38.461Z,100523.09
2023-03-15T05:38:14.609Z,100520.97
2023-03-15T05:41:01.796Z,100526.94
2023-03-15T05:43:38.611Z,100539.59
2023-03-15T05:46:25.440Z,100534.56
2023-03-15T05:49:10.681Z,100549.50
2023-03-15T05:51:51.141Z,100534.06
2023-03-15T05:54:27.929Z,100544.25
2023-03-15T05:57:20.667Z,100545.69
2023-03-15T06:00:09.215Z,100549.84
2023-03-15T06:02:42.212Z,100553.59
2023-03-15T06:05:31.779Z,100522.53
2023-03-15T06:08:02.822Z,100547.91
2023-03-15T06:10:29.440Z,100567.94
2023-03-15T06:12:58.729Z,100570.41
2023-03-15T06:15:25.572Z,100569.25
2023-03-15T06:17:53.839Z,100580.16
2023-03-15T06:20:20.424Z,100578.50
2023-03-15T06:22:47.417Z,100574.66
2023-03-15T06:25:40.526Z,100567.13
2023-03-15T06:28:07.164Z,100583.38
2023-03-15T06:30:35.036Z,100581.47
2023-03-15T06:33:01.781Z,100569.84
2023-03-15T06:35:30.226Z,100560.34
2023-03-15T06:37:57.018Z,100571.91
2023-03-15T06:40:23.698Z,100577.81
2023-03-15T06:42:50.640Z,100590.41
2023-03-15T06:45:19.136Z,100588.19
2023-03-15T06:47:46.777Z,100587.25
2023-03-15T06:50:14.946Z,100591.84
2023-03-15T06:52:41.815Z,100584.31
2023-03-15T06:55:10.164Z,100591.00
2023-03-15T06:57:37.071Z,100593.94
2023-03-15T07:00:07.832Z,100595.06
2023-03-15T07:02:37.537Z,100595.06
2023-03-15T07:05:04.841Z,100586.44
2023-03-15T07:07:33.968Z,100601.59
2023-03-15T07:10:00.623Z,100606.00
2023-03-15T07:12:28.362Z,100607.63
2023-03-15T07:14:54.936Z,100598.38
2023-03-15T07:17:21.919Z,100605.38
2023-03-15T07:19:56.193Z,100608.34
2023-03-15T07:22:23.304Z,100612.38
2023-03-15T07:24:49.895Z,100606.28
2023-03-15T07:27:19.138Z,100607.28
2023-03-15T07:29:45.962Z,100621.44
2023-03-15T07:32:12.609Z,100615.25
2023-03-15T07:34:39.323Z,100622.34
2023-03-15T07:37:05.899Z,100613.81
2023-03-15T07:39:32.616Z,100632.72
2023-03-15T07:41:59.604Z,100631.72
2023-03-15T07:44:31.772Z,100636.81
2023-03-15T07:46:58.466Z,100639.56
2023-03-15T07:49:25.085Z,100605.47
2023-03-15T07:51:51.709Z,100625.50
2023-03-15T07:54:19.381Z,100637.63
2023-03-15T07:56:45.952Z,100630.50
2023-03-15T07:59:12.613Z,100638.44
2023-03-15T08:01:39.343Z,100634.47
2023-03-15T08:04:05.945Z,100634.75
2023-03-15T08:06:32.500Z,100638.81
2023-03-15T08:09:01.536Z,100643.50
2023-03-15T08:11:28.102Z,100642.91
2023-03-15T08:13:57.589Z,100650.81
2023-03-15T08:16:24.232Z,100652.75
2023-03-15T08:18:50.768Z,100655.63
2023-03-15T08:21:17.287Z,100669.75
2023-03-15T08:23:43.848Z,100673.31
2023-03-15T08:26:10.706Z,100669.75
2023-03-15T08:28:37.306Z,100678.09
2023-03-15T08:31:09.936Z,100667.63
2023-03-15T08:33:39.796Z,100672.50
2023-03-15T08:36:06.603Z,100662.53
2023-03-15T08:38:33.259Z,100666.69
2023-03-15T08:40:59.983Z,100668.63
2023-03-15T08:43:26.700Z,100670.75
2023-03-15T08:46:01.871Z,100679.63
2023-03-15T08:48:29.084Z,100665.88
2023-03-15T08:50:55.707Z,100676.47
2023-03-15T08:53:22.294Z,100672.38
2023-03-15T08:55:49.603Z,100683.19
2023-03-15T08:58:16.222Z,100680.16
2023-03-15T09:00:42.854Z,100674.03
2023-03-15T09:03:09.524Z,100659.78
2023-03-15T09:05:36.298Z,100670.28
2023-03-15T09:08:03.050Z,100673.63
2023-03-15T09:10:29.633Z,100659.59
2023-03-15T09:12:56.184Z,100678.91
2023-03-15T09:15:22.818Z,100678.53
2023-03-15T09:17:51.306Z,100685.22
2023-03-15T09:20:21.773Z,100684.59
2023-03-15T09:22:56.198Z,100687.56
2023-03-15T09:25:25.612Z,100686.69
2023-03-15T09:27:52.186Z,100694.19
2023-03-15T09:30:19.045Z,100694.09
2023-03-15T09:32:46.191Z,100692.97
2023-03-15T09:35:14.656Z,100700.59
2023-03-15T09:37:43.861Z,100699.06
2023-03-15T09:40:32.062Z,100709.66
2023-03-15T09:43:01.754Z,100703.97
2023-03-15T09:45:48.654Z,100714.75
2023-03-15T09:48:26.918Z,100715.34
2023-03-15T09:51:03.079Z,100717.28
2023-03-15T09:53:46.278Z,100708.94
2023-03-15T09:56:25.783Z,100718.81
2023-03-15T09:58:52.661Z,100715.84
2023-03-15T10:01:29.729Z,100727.56
2023-03-15T10:03:56.568Z,100721.63
2023-03-15T10:06:30.274Z,100727.97
2023-03-15T10:08:58.451Z,100721.25
2023-03-15T10:11:46.059Z,100734.09
2023-03-15T10:14:33.716Z,100726.25
2023-03-15T10:17:01.083Z,100735.31
2023-03-15T10:19:30.778Z,100726.75
2023-03-15T10:21:57.280Z,100735.50
2023-03-15T10:24:40.062Z,100735.72
2023-03-15T10:27:41.681Z,100740.81
2023-03-15T10:30:17.392Z,100741.28
2023-03-15T10:32:44.734Z,100748.44
2023-03-15T10:35:14.852Z,100720.44
2023-03-15T10:37:42.633Z,100747.84
2023-03-15T10:40:16.361Z,100741.63
2023-03-15T10:42:44.553Z,100744.03
2023-03-15T10:45:14.080Z,100736.13
2023-03-15T10:47:45.246Z,100739.38
2023-03-15T10:50:28.540Z,100737.13
2023-03-15T10:52:56.633Z,100736.13
2023-03-15T10:55:33.971Z,100731.63
2023-03-15T10:58:19.169Z,100731.81
2023-03-15T11:00:51.088Z,100724.50
2023-03-15T11:03:22.316Z,100732.63
2023-03-15T11:05:53.391Z,100735.72
2023-03-15T11:08:21.420Z,100739.38
2023-03-15T11:10:56.146Z,100739.16
2023-03-15T11:13:28.090Z,100742.59
2023-03-15T11:16:09.629Z,100743.94
2023-03-15T11:18:39.394Z,100742.94
2023-03-15T11:21:08.485Z,100747.63
2023-03-15T11:23:37.704Z,100750.16
2023-03-15T11:26:04.846Z,100741.59
2023-03-15T11:28:32.462Z,100739.78
2023-03-15T11:31:02.006Z,100738.78
2023-03-15T11:33:28.529Z,100743.03
2023-03-15T11:35:58.363Z,100730.41
2023-03-15T11:38:36.657Z,100739.44
2023-03-15T11:41:10.957Z,100731.09
2023-03-15T11:43:59.900Z,100733.44
2023-03-15T11:46:32.424Z,100738.34
2023-03-15T11:49:09.623Z,100720.22
2023-03-15T11:51:36.177Z,100734.97
2023-03-15T11:54:14.610Z,100737.53
2023-03-15T11:56:46.637Z,100740.41
2023-03-15T11:59:15.771Z,100737.31
2023-03-15T12:01:46.564Z,100733.38
2023-03-15T12:04:25.301Z,100731.63
2023-03-15T12:06:55.699Z,100732.25
2023-03-15T12:09:36.258Z,100738.53
2023-03-15T12:12:31.916Z,100734.16
2023-03-15T12:15:16.013Z,100736.31
2023-03-15T12:17:49.142Z,100742.81
2023-03-15T12:20:17.722Z,100744.88
2023-03-15T12:22:56.228Z,100737.31
2023-03-15T12:25:45.456Z,100747.69
2023-03-15T12:28:26.861Z,100741.09
2023-03-15T12:30:56.360Z,100735.06
2023-03-15T12:33:22.969Z,100739.25
2023-03-15T12:35:49.649Z,100743.41
2023-03-15T12:38:20.495Z,100750.34
2023-03-15T12:40:57.777Z,100740.97
2023-03-15T12:43:41.185Z,100743.84
2023-03-15T12:46:07.906Z,100738.34
2023-03-15T12:48:34.654Z,100750.81
2023-03-15T12:51:03.772Z,100744.47
2023-03-15T12:53:39.905Z,100754.72
2023-03-15T12:56:18.477Z,100747.41
2023-03-15T12:58:51.484Z,100754.41
2023-03-15T13:01:17.981Z,100755.44
2023-03-15T13:03:44.693Z,100752.50
2023-03-15T13:06:17.168Z,100751.88
2023-03-15T13:09:14.841Z,100762.66
2023-03-15T13:11:45.524Z,100747.06
2023-03-15T13:14:33.579Z,100747.88
2023-03-15T13:17:06.456Z,100747.69
2023-03-15T13:19:41.864Z,100743.22
2023-03-15T13:22:31.913Z,100737.31
2023-03-15T13:25:21.744Z,100730.56
2023-03-15T13:27:56.939Z,100736.06
2023-03-15T13:30:41.039Z,100723.84
2023-03-15T13:33:26.386Z,100722.78
2023-03-15T13:35:53.166Z,100721.66
2023-03-15T13:38:41.157Z,100732.56
2023-03-15T13:41:38.227Z,100729.66
2023-03-15T13:44:11.997Z,100719.72
2023-03-15T13:46:41.443Z,100724.59
2023-03-15T13:49:11.236Z,100731.25
2023-03-15T13:51:37.919Z,100727.69
2023-03-15T13:54:06.810Z,100725.53
2023-03-15T13:56:48.590Z,100703.41
2023-03-15T13:59:16.123Z,100722.97
2023-03-15T14:01:44.091Z,100721.75
2023-03-15T14:04:16.612Z,100693.84
2023-03-15T14:06:45.652Z,100699.16
2023-03-15T14:09:18.387Z,100717.75
2023-03-15T14:11:45.122Z,100723.75
2023-03-15T14:14:19.644Z,100708.19
2023-03-15T14:17:02.971Z,100704.25
2023-03-15T14:19:31.438Z,100716.94
2023-03-15T14:21:59.794Z,100704.25
2023-03-15T14:24:29.408Z,100704.00
2023-03-15T14:27:00.479Z,100702.53
2023-03-15T14:29:40.090Z,100702.25
2023-03-15T14:32:08.579Z,100698.06
2023-03-15T14:34:44.175Z,100709.06
2023-03-15T14:37:39.953Z,100713.28
2023-03-15T14:40:14.958Z,100698.41
2023-03-15T14:42:42.978Z,100711.31
2023-03-15T14:45:11.265Z,100696.91
2023-03-15T14:47:55.008Z,100702.94
2023-03-15T14:50:23.409Z,100680.09
2023-03-15T14:52:50.390Z,100693.41
2023-03-15T14:55:19.352Z,100706.41
2023-03-15T14:57:46.241Z,100701.22
2023-03-15T15:00:13.759Z,100709.81
2023-03-15T15:02:40.410Z,100710.56
2023-03-15T15:05:17.961Z,100700.78
2023-03-15T15:07:44.761Z,100734.63
2023-03-15T15:10:13.691Z,100719.44
2023-03-15T15:12:40.378Z,100730.66
2023-03-15T15:15:25.117Z,100722.94
2023-03-15T15:17:53.442Z,100713.25
2023-03-15T15:20:20.258Z,100707.94
2023-03-15T15:22:47.097Z,100729.09
2023-03-15T15:25:21.785Z,100719.34
2023-03-15T15:27:51.703Z,100719.34
2023-03-15T15:30:25.163Z,100727.25
2023-03-15T15:32:52.739Z,100723.38
2023-03-15T15:35:19.885Z,100726.47
2023-03-15T15:37:48.013Z,100733.59
2023-03-15T15:40:39.324Z,100717.28
2023-03-15T15:43:06.404Z,100742.34
2023-03-15T15:45:34.585Z,100746.69
2023-03-15T15:48:06.024Z,100751.97
2023-03-15T15:50:33.589Z,100763.09
2023-03-15T15:53:01.796Z,100756.59
2023-03-15T15:55:33.753Z,100759.34
2023-03-15T15:58:00.910Z,100763.22
2023-03-15T16:00:27.922Z,100755.91
2023-03-15T16:02:55.616Z,100768.56
2023-03-15T16:05:24.061Z,100771.50
2023-03-15T16:07:51.314Z,100778.00
2023-03-15T16:10:22.423Z,100778.09
2023-03-15T16:12:52.840Z,100766.97
2023-03-15T16:15:19.639Z,100774.28
2023-03-15T16:17:46.501Z,100785.56
2023-03-15T16:20:14.365Z,100771.84
2023-03-15T16:22:44.209Z,100775.91
2023-03-15T16:25:16.226Z,100786.50
2023-03-15T16:27:43.003Z,100790.34
2023-03-15T16:30:27.277Z,100786.34
2023-03-15T16:32:55.299Z,100789.81
2023-03-15T16:35:22.940Z,100797.66
2023-03-15T16:37:50.887Z,100792.16
2023-03-15T16:40:28.064Z,100794.00
2023-03-15T16:42:54.783Z,100792.38
2023-03-15T16:45:21.512Z,100793.00
2023-03-15T16:47:49.765Z,100797.38
2023-03-15T16:50:16.542Z,100771.97
2023-03-15T16:52:43.897Z,100799.75
2023-03-15T16:55:13.959Z,100807.72
2023-03-15T16:57:41.123Z,100816.38
2023-03-15T17:00:12.114Z,100807.84
2023-03-15T17:02:39.079Z,100815.91
2023-03-15T17:05:05.901Z,100802.66
2023-03-15T17:07:34.027Z,100818.94
2023-03-15T17:10:07.767Z,100816.84
2023-03-15T17:12:34.376Z,100824.44
2023-03-15T17:15:01.056Z,100817.34
2023-03-15T17:17:28.157Z,100803.94
2023-03-15T17:19:54.810Z,100829.47
2023-03-15T17:22:21.544Z,100838.34
2023-03-15T17:24:48.609Z,100834.66
2023-03-15T17:27:33.473Z,100813.06
2023-03-15T17:30:00.354Z,100831.59
2023-03-15T17:32:27.348Z,100832.63
2023-03-15T17:34:58.951Z,100823.47
2023-03-15T17:37:35.072Z,100850.75
2023-03-15T17:40:08.980Z,100847.81
2023-03-15T17:42:35.586Z,100848.34
2023-03-15T17:45:04.642Z,100827.66
2023-03-15T17:47:32.414Z,100824.91
2023-03-15T17:49:59.062Z,100859.22
2023-03-15T17:52:27.770Z,100864.00
2023-03-15T17:54:54.347Z,100861.13
2023-03-15T17:57:21.317Z,100857.19
2023-03-15T17:59:48.016Z,100845.59
2023-03-15T18:02:15.453Z,100866.56
2023-03-15T18:04:42.344Z,100861.28
2023-03-15T18:07:09.099Z,100876.34
2023-03-15T18:09:35.755Z,100878.59
2023-03-15T18:12:02.451Z,100875.66
2023-03-15T18:14:30.886Z,100878.69
2023-03-15T18:16:57.610Z,100873.78
2023-03-15T18:19:24.949Z,100884.38
2023-03-15T18:21:51.696Z,100869.34
2023-03-15T18:24:19.164Z,100883.97
2023-03-15T18:26:45.908Z,100892.34
2023-03-15T18:29:12.902Z,100893.97
2023-03-15T18:31:40.570Z,100910.88
2023-03-15T18:34:07.347Z,100895.38
2023-03-15T18:36:34.024Z,100902.22
2023-03-15T18:39:00.706Z,100892.75
2023-03-15T18:41:27.420Z,100893.75
2023-03-15T18:43:54.083Z,100895.69
2023-03-15T18:46:24.677Z,100908.03
2023-03-15T18:48:53.504Z,100902.72
2023-03-15T18:51:22.793Z,100898.22
2023-03-15T18:53:49.706Z,100906.38
2023-03-15T18:56:30.784Z,100900.19
2023-03-15T18:58:57.564Z,100898.03
2023-03-15T19:12:45.863Z,100901.31
2023-03-15T19:15:18.595Z,100882.22
2023-03-15T19:17:48.377Z,100906.16
2023-03-15T19:20:20.428Z,100894.16
2023-03-15T19:22:52.218Z,100900.78
2023-03-15T19:25:24.928Z,100915.56
2023-03-15T19:27:52.699Z,100910.66
2023-03-15T19:30:21.290Z,100910.16
2023-03-15T19:32:48.635Z,100916.16
2023-03-15T19:35:25.801Z,100911.06
2023-03-15T19:37:52.920Z,100920.56
2023-03-15T19:40:20.004Z,100923.50
2023-03-15T19:42:47.018Z,100917.19
2023-03-15T19:45:14.476Z,100932.75
2023-03-15T19:47:41.829Z,100925.94
2023-03-15T19:50:11.245Z,100927.34
2023-03-15T19:52:46.578Z,100919.31
2023-03-15T19:55:18.387Z,100933.69
2023-03-15T19:57:46.727Z,100929.81
2023-03-15T20:00:16.000Z,100927.13
2023-03-15T20:02:43.971Z,100935.91
2023-03-15T20:05:15.315Z,100910.03
2023-03-15T20:07:46.228Z,100934.47
2023-03-15T20:10:13.289Z,100932.03
2023-03-15T20:12:42.238Z,100934.47
2023-03-15T20:15:10.799Z,100916.13
2023-03-15T20:17:37.698Z,100927.59
2023-03-15T20:20:10.749Z,100936.94
2023-03-15T20:22:40.906Z,100933.69
2023-03-15T20:25:08.732Z,100937.53
2023-03-15T20:27:35.629Z,100911.69
2023-03-15T20:30:03.594Z,100938.06
2023-03-15T20:32:31.000Z,100940.22
2023-03-15T20:34:57.713Z,100930.41
2023-03-15T20:37:25.205Z,100938.59
2023-03-15T20:39:51.882Z,100944.09
2023-03-15T20:42:20.528Z,100940.84
2023-03-15T20:44:47.257Z,100946.53
2023-03-15T20:47:14.189Z,100946.00
2023-03-15T20:49:40.835Z,100945.22
2023-03-15T20:52:07.464Z,100942.44
2023-03-15T20:54:34.201Z,100951.22
2023-03-15T20:57:00.892Z,100947.97
2023-03-15T20:59:27.707Z,100951.00
2023-03-15T21:01:54.354Z,100960.63
2023-03-15T21:04:22.607Z,100948.25
2023-03-15T21:06:49.472Z,100960.63
2023-03-15T21:09:16.188Z,100955.69
2023-03-15T21:11:42.946Z,100959.56
2023-03-15T21:14:09.618Z,100953.03
2023-03-15T21:16:36.644Z,100960.78
2023-03-15T21:19:03.538Z,100954.28
2023-03-15T21:21:30.281Z,100956.22
2023-03-15T21:23:57.216Z,100953.47
2023-03-15T21:26:23.934Z,100955.50
2023-03-15T21:28:51.140Z,100954.88
2023-03-15T21:31:17.948Z,100960.72
2023-03-15T21:33:44.654Z,100962.03
2023-03-15T21:36:11.330Z,100972.00
2023-03-15T21:38:38.027Z,100963.75
2023-03-15T21:41:06.858Z,100964.38
2023-03-15T21:43:33.502Z,100955.91
2023-03-15T21:46:04.503Z,100965.50
2023-03-15T21:48:32.456Z,100964.88
2023-03-15T21:50:59.425Z,100963.88
2023-03-15T21:53:26.081Z,100959.09
2023-03-15T21:55:55.576Z,100967.13
2023-03-15T21:58:22.756Z,100970.78
2023-03-15T22:00:50.495Z,100972.75
2023-03-15T22:03:17.233Z,100974.06
2023-03-15T22:05:45.820Z,100962.75
2023-03-15T22:08:12.511Z,100953.88
2023-03-15T22:10:39.100Z,100957.16
2023-03-15T22:13:05.740Z,100957.75
2023-03-15T22:15:33.827Z,100957.03
2023-03-15T22:18:02.313Z,100956.34
2023-03-15T22:20:29.536Z,100963.56
2023-03-15T22:22:56.131Z,100968.56
2023-03-15T22:25:23.010Z,100963.06
2023-03-15T22:27:49.667Z,100953.38
2023-03-15T22:30:17.642Z,100966.72
2023-03-15T22:32:44.464Z,100968.44
2023-03-15T22:35:12.367Z,100964.38
2023-03-15T22:37:39.081Z,100965.50
2023-03-15T22:40:06.476Z,100965.59
2023-03-15T22:42:33.425Z,100964.47
2023-03-15T22:45:00.095Z,100947.03
2023-03-15T22:47:26.827Z,100959.88
2023-03-15T22:49:54.662Z,100944.16
2023-03-15T22:52:24.120Z,100926.94
2023-03-15T22:54:50.706Z,100947.56
2023-03-15T22:57:17.410Z,100954.69
2023-03-15T22:59:44.053Z,100936.16
2023-03-15T23:02:12.485Z,100944.47
2023-03-15T23:04:40.269Z,100959.78
2023-03-15T23:07:07.117Z,100953.66
2023-03-15T23:09:33.669Z,100952.34
2023-03-15T23:12:00.234Z,100943.28
2023-03-15T23:14:26.780Z,100950.97
2023-03-15T23:16:53.409Z,100937.94
2023-03-15T23:19:20.050Z,100958.72
2023-03-15T23:21:46.692Z,100957.72
2023-03-15T23:24:17.037Z,100950.56
2023-03-15T23:26:43.942Z,100949.16
2023-03-15T23:29:13.393Z,100953.31
2023-03-15T23:31:40.702Z,100947.31
2023-03-15T23:34:08.090Z,100937.94
2023-03-15T23:36:34.929Z,100948.41
2023-03-15T23:39:01.573Z,100948.78
2023-03-15T23:41:28.165Z,100944.66
2023-03-15T23:43:54.830Z,100925.59
2023-03-15T23:46:23.633Z,100931.41
2023-03-15T23:48:52.263Z,100933.03
2023-03-15T23:51:19.145Z,100947.81
2023-03-15T23:53:45.655Z,100946.25
2023-03-15T23:56:12.293Z,100946.25
2023-03-15T23:58:38.852Z,100939.16
